createdAt,value
2023-04-18T00:00:47.879Z,13964.9229
2023-04-18T00:01:50.205Z,13961.5381
2023-04-18T00:02:50.849Z,13963.3848
2023-04-18T00:03:52.283Z,13967.2305
2023-04-18T00:04:53.723Z,13958.8457
2023-04-18T00:05:54.936Z,13959.8457
2023-04-18T00:06:56.430Z,13959.1543
2023-04-18T00:07:57.795Z,13956.6924
2023-04-18T00:08:59.335Z,13957.2305
2023-04-18T00:10:00.711Z,13960.0771
2023-04-18T00:11:02.164Z,13957.8457
2023-04-18T00:12:03.510Z,13956.8457
2023-04-18T00:13:05.013Z,13959.4619
2023-04-18T00:14:07.169Z,13961.0771
2023-04-18T00:15:07.915Z,13958.6924
2023-04-18T00:16:09.299Z,13960.9229
2023-04-18T00:17:10.849Z,13960.0000
2023-04-18T00:18:12.115Z,13958.1543
2023-04-18T00:19:13.519Z,13954.5381
2023-04-18T00:20:14.959Z,13961.3076
2023-04-18T00:21:16.410Z,13962.9229
2023-04-18T00:22:17.741Z,13958.2305
2023-04-18T00:23:19.241Z,13960.9229
2023-04-18T00:24:20.556Z,13965.5381
2023-04-18T00:25:21.992Z,13963.0771
2023-04-18T00:26:23.622Z,13963.6924
2023-04-18T00:27:24.927Z,13960.9229
2023-04-18T00:28:26.341Z,13965.0771
2023-04-18T00:29:27.829Z,13961.9229
2023-04-18T00:30:29.237Z,13965.3076
2023-04-18T00:31:30.698Z,13961.3076
2023-04-18T00:32:31.999Z,13956.6924
2023-04-18T00:33:33.495Z,13960.4619
2023-04-18T00:34:34.844Z,13962.3848
2023-04-18T00:35:36.789Z,13962.3076
2023-04-18T00:36:37.812Z,13955.6152
2023-04-18T00:37:39.157Z,13962.3076
2023-04-18T00:38:40.543Z,13959.7695
2023-04-18T00:39:42.086Z,13963.0000
2023-04-18T00:40:43.455Z,13959.9229
2023-04-18T00:41:44.916Z,13965.8457
2023-04-18T00:42:46.252Z,13963.6924
2023-04-18T00:43:47.719Z,13961.8457
2023-04-18T00:44:49.098Z,13960.3076
2023-04-18T00:45:50.616Z,13966.6152
2023-04-18T00:46:52.017Z,13961.8457
2023-04-18T00:47:53.462Z,13962.6924
2023-04-18T00:48:54.815Z,13960.9229
2023-04-18T00:49:56.288Z,13962.2305
2023-04-18T00:50:57.762Z,13962.3076
2023-04-18T00:51:59.211Z,13963.2305
2023-04-18T00:53:00.555Z,13957.6152
2023-04-18T00:54:01.979Z,13966.1543
2023-04-18T00:55:03.364Z,13960.3076
2023-04-18T00:56:05.276Z,13959.6924
2023-04-18T00:57:06.276Z,13952.8457
2023-04-18T00:58:07.673Z,13960.4619
2023-04-18T00:59:09.151Z,13962.7695
2023-04-18T01:00:10.527Z,13965.2305
2023-04-18T01:01:12.044Z,13966.5381
2023-04-18T01:02:13.452Z,13963.0000
2023-04-18T01:03:14.959Z,13961.9229
2023-04-18T01:04:17.345Z,13957.1543
2023-04-18T01:05:17.656Z,13962.2305
2023-04-18T01:06:19.232Z,13967.1543
2023-04-18T01:07:20.516Z,13958.3076
2023-04-18T01:08:21.909Z,13960.2305
2023-04-18T01:09:23.359Z,13957.1543
2023-04-18T01:10:24.776Z,13960.4619
2023-04-18T01:11:26.289Z,13957.0000
2023-04-18T01:12:27.678Z,13962.2305
2023-04-18T01:13:29.100Z,13964.9229
2023-04-18T01:14:30.481Z,13960.7695
2023-04-18T01:15:31.991Z,13959.7695
2023-04-18T01:16:33.397Z,13966.0771
2023-04-18T01:17:34.873Z,13963.6924
2023-04-18T01:18:36.273Z,13967.6924
2023-04-18T01:19:37.646Z,13971.2305
2023-04-18T01:20:39.007Z,13966.7695
2023-04-18T01:21:40.557Z,13969.5381
2023-04-18T01:22:41.885Z,13965.7695
2023-04-18T01:23:43.331Z,13965.2305
2023-04-18T01:24:44.763Z,13963.9229
2023-04-18T01:25:46.202Z,13962.6152
2023-04-18T01:26:47.700Z,13963.1543
2023-04-18T01:27:49.164Z,13965.0000
2023-04-18T01:28:50.491Z,13964.9229
2023-04-18T01:29:51.991Z,13962.4619
2023-04-18T01:30:53.370Z,13962.7695
2023-04-18T01:31:55.034Z,13963.8457
2023-04-18T01:32:56.393Z,13963.9229
2023-04-18T01:33:57.844Z,13963.6924
2023-04-18T01:34:59.206Z,13968.6152
2023-04-18T01:36:00.615Z,13965.9229
2023-04-18T01:37:02.162Z,13965.6924
2023-04-18T01:38:03.575Z,13970.3076
2023-04-18T01:39:04.893Z,13961.6152
2023-04-18T01:40:06.349Z,13970.0000
2023-04-18T01:41:07.758Z,13961.8457
2023-04-18T01:42:09.300Z,13961.1543
2023-04-18T01:43:10.643Z,13968.0771
2023-04-18T01:44:12.296Z,13967.0771
2023-04-18T01:45:13.468Z,13961.9229
2023-04-18T01:46:15.019Z,13964.9229
2023-04-18T01:47:16.423Z,13966.3076
2023-04-18T01:48:17.919Z,13964.7695
2023-04-18T01:49:19.216Z,13966.6152
2023-04-18T01:50:20.696Z,13958.9229
2023-04-18T01:51:22.072Z,13965.2305
2023-04-18T01:52:23.633Z,13963.1543
2023-04-18T01:53:24.977Z,13966.9229
2023-04-18T01:54:26.405Z,13968.0771
2023-04-18T01:55:27.794Z,13965.3848
2023-04-18T01:56:29.398Z,13965.7695
2023-04-18T01:57:30.764Z,13965.0771
2023-04-18T01:58:32.159Z,13967.3848
2023-04-18T01:59:33.489Z,13965.1543
2023-04-18T02:00:35.012Z,13968.8457
2023-04-18T02:01:36.433Z,13978.5381
2023-04-18T02:02:38.052Z,13974.4619
2023-04-18T02:03:39.514Z,13975.3076
2023-04-18T02:04:40.727Z,13972.3076
2023-04-18T02:05:42.108Z,13970.2305
2023-04-18T02:06:43.607Z,13972.6924
2023-04-18T02:07:44.994Z,13970.1543
2023-04-18T02:08:46.519Z,13966.9229
2023-04-18T02:09:47.775Z,13970.0771
2023-04-18T02:10:49.261Z,13971.0000
2023-04-18T02:11:50.654Z,13970.4619
2023-04-18T02:12:52.155Z,13967.4619
2023-04-18T02:13:53.597Z,13970.5381
2023-04-18T02:14:54.999Z,13963.6152
2023-04-18T02:15:56.382Z,13962.7695
2023-04-18T02:16:57.950Z,13963.0771
2023-04-18T02:17:59.378Z,13963.8457
2023-04-18T02:19:00.727Z,13961.8457
2023-04-18T02:20:02.161Z,13962.5381
2023-04-18T02:21:03.591Z,13964.3848
2023-04-18T02:22:04.962Z,13958.6152
2023-04-18T02:23:06.451Z,13962.9229
2023-04-18T02:24:07.904Z,13965.0000
2023-04-18T02:25:09.293Z,13965.2305
2023-04-18T02:26:10.693Z,13966.6924
2023-04-18T02:27:12.136Z,13958.7695
2023-04-18T02:28:13.597Z,13963.0771
2023-04-18T02:29:15.036Z,13956.5381
2023-04-18T02:30:16.447Z,13962.6924
2023-04-18T02:31:17.842Z,13966.3848
2023-04-18T02:32:19.279Z,13960.3848
2023-04-18T02:33:20.802Z,13965.0771
2023-04-18T02:34:22.216Z,13967.5381
2023-04-18T02:35:23.641Z,13965.6924
2023-04-18T02:36:25.049Z,13961.3848
2023-04-18T02:37:26.522Z,13967.7695
2023-04-18T02:38:28.301Z,13970.8457
2023-04-18T02:39:29.332Z,13972.4619
2023-04-18T02:40:30.766Z,13968.9229
2023-04-18T02:41:32.199Z,13969.9229
2023-04-18T02:42:33.714Z,13962.3848
2023-04-18T02:43:35.080Z,13964.9229
2023-04-18T02:44:36.762Z,13968.9229
2023-04-18T02:45:37.927Z,13966.7695
2023-04-18T02:46:39.305Z,13965.5381
2023-04-18T02:47:51.127Z,13969.0771
2023-04-18T02:48:42.322Z,13962.3848
2023-04-18T02:49:43.664Z,13967.7695
2023-04-18T02:50:44.992Z,13964.2305
2023-04-18T02:51:46.487Z,13966.4619
2023-04-18T02:52:47.927Z,13967.0771
2023-04-18T02:53:49.394Z,13973.9229
2023-04-18T02:54:50.834Z,13975.2305
2023-04-18T02:55:52.217Z,13967.0771
2023-04-18T02:56:53.649Z,13960.0771
2023-04-18T02:57:55.088Z,13959.0000
2023-04-18T02:58:56.525Z,13949.3848
2023-04-18T02:59:58.010Z,13945.5381
2023-04-18T03:00:59.340Z,13950.6924
2023-04-18T03:02:00.909Z,13951.6924
2023-04-18T03:03:02.344Z,13946.6924
2023-04-18T03:04:03.744Z,13949.9229
2023-04-18T03:05:05.211Z,13936.8457
2023-04-18T03:06:06.564Z,13943.9229
2023-04-18T03:07:08.728Z,13946.1543
2023-04-18T03:08:09.349Z,13944.6152
2023-04-18T03:09:10.838Z,13948.7695
2023-04-18T03:10:12.344Z,13949.3848
2023-04-18T03:11:13.676Z,13952.0000
2023-04-18T03:12:15.046Z,13948.6924
2023-04-18T03:13:16.538Z,13944.3076
2023-04-18T03:14:17.958Z,13942.3848
2023-04-18T03:15:19.403Z,13943.0000
2023-04-18T03:16:20.958Z,13943.3848
2023-04-18T03:17:22.256Z,13941.7695
2023-04-18T03:18:23.605Z,13948.9229
2023-04-18T03:19:25.130Z,13946.2305
2023-04-18T03:20:26.563Z,13947.2305
2023-04-18T03:21:27.964Z,13947.0771
2023-04-18T03:22:29.322Z,13949.9229
2023-04-18T03:23:30.790Z,13940.5381
2023-04-18T03:24:32.293Z,13945.1543
2023-04-18T03:25:33.794Z,13941.5381
2023-04-18T03:26:35.107Z,13936.4619
2023-04-18T03:27:36.510Z,13937.3848
2023-04-18T03:28:37.934Z,13940.8457
2023-04-18T03:29:39.405Z,13938.6152
2023-04-18T03:30:40.802Z,13935.6924
2023-04-18T03:31:42.277Z,13940.4619
2023-04-18T03:32:43.715Z,13937.2305
2023-04-18T03:33:45.083Z,13936.9229
2023-04-18T03:34:46.549Z,13939.9229
2023-04-18T03:35:48.116Z,13941.8457
2023-04-18T03:36:49.354Z,13936.9229
2023-04-18T03:37:50.829Z,13936.6924
2023-04-18T03:38:52.232Z,13938.3848
2023-04-18T03:39:53.725Z,13932.4619
2023-04-18T03:40:55.124Z,13934.6152
2023-04-18T03:41:56.540Z,13932.6924
2023-04-18T03:42:57.927Z,13945.6152
2023-04-18T03:43:59.438Z,13941.3848
2023-04-18T03:45:01.252Z,13935.0771
2023-04-18T03:46:02.373Z,13936.4619
2023-04-18T03:47:03.647Z,13937.1543
2023-04-18T03:48:05.088Z,13935.7695
2023-04-18T03:49:06.429Z,13927.0771
2023-04-18T03:50:07.959Z,13938.3076
2023-04-18T03:51:09.344Z,13942.0771
2023-04-18T03:52:10.787Z,13946.7695
2023-04-18T03:53:12.195Z,13939.0771
2023-04-18T03:54:13.886Z,13937.0000
2023-04-18T03:55:15.376Z,13939.2305
2023-04-18T03:56:16.574Z,13942.0771
2023-04-18T03:57:17.875Z,13942.0000
2023-04-18T03:58:19.313Z,13940.5381
2023-04-18T03:59:20.752Z,13935.4619
2023-04-18T04:00:22.402Z,13934.8457
2023-04-18T04:01:23.682Z,13936.5381
2023-04-18T04:02:25.237Z,13938.0000
2023-04-18T04:03:26.541Z,13932.1543
2023-04-18T04:04:28.016Z,13936.3848
2023-04-18T04:05:29.453Z,13939.1543
2023-04-18T04:06:30.857Z,13944.0771
2023-04-18T04:07:32.244Z,13934.3848
2023-04-18T04:08:33.697Z,13933.7695
2023-04-18T04:09:35.153Z,13939.3076
2023-04-18T04:10:36.547Z,13941.0771
2023-04-18T04:11:38.020Z,13934.2305
2023-04-18T04:12:39.447Z,13929.5381
2023-04-18T04:13:40.818Z,13933.8457
2023-04-18T04:14:42.244Z,13935.8457
2023-04-18T04:15:43.766Z,13938.8457
2023-04-18T04:16:45.259Z,13931.4619
2023-04-18T04:17:46.642Z,13925.8457
2023-04-18T04:18:47.979Z,13929.8457
2023-04-18T04:19:49.416Z,13928.9229
2023-04-18T04:20:50.820Z,13935.5381
2023-04-18T04:21:52.285Z,13931.9229
2023-04-18T04:22:53.682Z,13929.6152
2023-04-18T04:23:55.104Z,13935.0771
2023-04-18T04:24:56.494Z,13934.6152
2023-04-18T04:25:58.094Z,13929.1543
2023-04-18T04:26:59.450Z,13930.2305
2023-04-18T04:28:00.865Z,13929.6924
2023-04-18T04:29:02.227Z,13933.3848
2023-04-18T04:30:03.761Z,13938.6924
2023-04-18T04:31:05.140Z,13937.3848
2023-04-18T04:32:06.746Z,13934.6924
2023-04-18T04:33:07.961Z,13935.6924
2023-04-18T04:34:09.395Z,13935.2305
2023-04-18T04:35:10.762Z,13934.4619
2023-04-18T04:36:12.305Z,13938.3076
2023-04-18T04:37:13.748Z,13935.1543
2023-04-18T04:38:15.196Z,13931.4619
2023-04-18T04:39:16.567Z,13934.0000
2023-04-18T04:40:17.973Z,13935.0000
2023-04-18T04:41:19.410Z,13932.8457
2023-04-18T04:42:20.934Z,13932.1543
2023-04-18T04:43:22.280Z,13934.2305
2023-04-18T04:44:23.744Z,13935.0771
2023-04-18T04:45:25.052Z,13933.3848
2023-04-18T04:46:26.576Z,13931.0000
2023-04-18T04:47:28.094Z,13928.6152
2023-04-18T04:48:29.446Z,13932.7695
2023-04-18T04:49:30.846Z,13936.1543
2023-04-18T04:50:32.307Z,13934.0000
2023-04-18T04:51:33.720Z,13934.0000
2023-04-18T04:52:35.131Z,13930.4619
2023-04-18T04:53:36.575Z,13931.7695
2023-04-18T04:54:38.045Z,13931.0771
2023-04-18T04:55:39.382Z,13928.3076
2023-04-18T04:56:40.903Z,13924.3848
2023-04-18T04:57:42.370Z,13921.8457
2023-04-18T04:58:43.800Z,13918.5381
2023-04-18T04:59:45.145Z,13915.8457
2023-04-18T05:00:46.610Z,13914.4619
2023-04-18T05:01:48.068Z,13911.6152
2023-04-18T05:02:49.617Z,13911.8457
2023-04-18T05:03:51.512Z,13905.4619
2023-04-18T05:04:52.359Z,13898.6924
2023-04-18T05:05:53.739Z,13884.1543
2023-04-18T05:06:55.168Z,13889.3848
2023-04-18T05:07:56.612Z,13891.0771
2023-04-18T05:08:58.068Z,13894.7695
2023-04-18T05:09:59.582Z,13896.0771
2023-04-18T05:11:00.835Z,13880.0771
2023-04-18T05:12:02.328Z,13859.1543
2023-04-18T05:13:03.717Z,13870.1543
2023-04-18T05:14:05.286Z,13881.5381
2023-04-18T05:15:06.623Z,13879.0771
2023-04-18T05:16:08.044Z,13879.6924
2023-04-18T05:17:09.512Z,13881.7695
2023-04-18T05:18:10.914Z,13875.6152
2023-04-18T05:19:12.405Z,13876.5381
2023-04-18T05:20:13.870Z,13875.5381
2023-04-18T05:21:15.249Z,13871.6152
2023-04-18T05:22:16.666Z,13864.0000
2023-04-18T05:23:18.101Z,13870.0771
2023-04-18T05:24:19.496Z,13873.4619
2023-04-18T05:25:20.968Z,13856.9229
2023-04-18T05:26:22.404Z,13843.6924
2023-04-18T05:27:23.799Z,13863.6152
2023-04-18T05:28:25.152Z,13860.6924
2023-04-18T05:29:26.611Z,13867.2305
2023-04-18T05:30:28.047Z,13849.3076
2023-04-18T05:31:29.587Z,13839.6152
2023-04-18T05:32:30.969Z,13834.0000
2023-04-18T05:33:32.399Z,13845.0000
2023-04-18T05:34:33.973Z,13853.9229
2023-04-18T05:35:35.314Z,13867.8457
2023-04-18T05:36:36.722Z,13842.3848
2023-04-18T05:37:38.139Z,13836.6924
2023-04-18T05:38:39.630Z,13828.7695
2023-04-18T05:39:41.042Z,13843.4619
2023-04-18T05:40:42.458Z,13869.7695
2023-04-18T05:41:43.818Z,13854.5381
2023-04-18T05:42:45.347Z,13833.8457
2023-04-18T05:43:54.531Z,13825.5381
2023-04-18T05:44:48.192Z,13837.0000
2023-04-18T05:45:49.537Z,13841.3848
2023-04-18T05:46:50.965Z,13862.5381
2023-04-18T05:47:52.908Z,13841.7695
2023-04-18T05:48:53.995Z,13823.7695
2023-04-18T05:49:55.272Z,13826.3848
2023-04-18T05:50:56.771Z,13833.6924
2023-04-18T05:51:58.928Z,13848.1543
2023-04-18T05:52:59.627Z,13861.4619
2023-04-18T05:54:01.145Z,13835.0771
2023-04-18T05:55:02.453Z,13823.2305
2023-04-18T05:56:03.838Z,13812.6152
2023-04-18T05:57:05.263Z,13827.8457
2023-04-18T05:58:06.879Z,13851.5381
2023-04-18T05:59:08.137Z,13846.3076
2023-04-18T06:00:09.587Z,13824.3848
2023-04-18T06:01:10.981Z,13815.9229
2023-04-18T06:02:12.509Z,13818.5381
2023-04-18T06:03:14.046Z,13836.0000
2023-04-18T06:04:15.640Z,13848.6152
2023-04-18T06:05:16.835Z,13829.7695
2023-04-18T06:06:18.108Z,13817.9229
2023-04-18T06:07:19.579Z,13809.9229
2023-04-18T06:08:20.993Z,13830.6924
2023-04-18T06:09:22.390Z,13838.0771
2023-04-18T06:10:23.924Z,13830.1543
2023-04-18T06:11:25.830Z,13819.3076
2023-04-18T06:12:26.728Z,13807.6924
2023-04-18T06:13:28.337Z,13818.6152
2023-04-18T06:14:29.619Z,13826.9229
2023-04-18T06:15:30.897Z,13843.0000
2023-04-18T06:16:32.513Z,13825.3848
2023-04-18T06:17:33.833Z,13811.3076
2023-04-18T06:18:35.298Z,13802.3076
2023-04-18T06:19:36.687Z,13820.7695
2023-04-18T06:20:38.167Z,13828.0000
2023-04-18T06:21:39.525Z,13831.0000
2023-04-18T06:22:41.108Z,13814.5381
2023-04-18T06:23:42.462Z,13805.3848
2023-04-18T06:24:43.876Z,13814.3076
2023-04-18T06:25:45.257Z,13820.7695
2023-04-18T06:26:46.674Z,13816.2305
2023-04-18T06:27:48.198Z,13812.4619
2023-04-18T06:28:49.900Z,13806.7695
2023-04-18T06:29:51.006Z,13801.5381
2023-04-18T06:30:52.661Z,13814.5381
2023-04-18T06:31:53.889Z,13824.3848
2023-04-18T06:32:55.244Z,13818.7695
2023-04-18T06:33:56.884Z,13806.0771
2023-04-18T06:34:58.114Z,13795.5381
2023-04-18T06:35:59.564Z,13812.9229
2023-04-18T06:37:00.964Z,13824.1543
2023-04-18T06:38:02.453Z,13835.7695
2023-04-18T06:39:03.908Z,13813.6924
2023-04-18T06:40:05.298Z,13799.6924
2023-04-18T06:41:06.692Z,13804.4619
2023-04-18T06:42:08.852Z,13816.9229
2023-04-18T06:43:09.532Z,13833.2305
2023-04-18T06:44:11.078Z,13814.6924
2023-04-18T06:45:12.372Z,13797.0771
2023-04-18T06:46:13.917Z,13794.3848
2023-04-18T06:47:15.176Z,13804.3076
2023-04-18T06:48:16.571Z,13811.0771
2023-04-18T06:49:18.104Z,13814.6924
2023-04-18T06:50:19.538Z,13802.0771
2023-04-18T06:51:20.939Z,13796.4619
2023-04-18T06:52:22.329Z,13805.1543
2023-04-18T06:53:23.748Z,13822.0000
2023-04-18T06:54:25.215Z,13807.7695
2023-04-18T06:55:26.678Z,13799.0000
2023-04-18T06:56:28.131Z,13787.2305
2023-04-18T06:57:29.452Z,13795.5381
2023-04-18T06:58:30.850Z,13799.6152
2023-04-18T06:59:32.351Z,13818.9229
2023-04-18T07:00:33.825Z,13799.6152
2023-04-18T07:01:35.906Z,13788.0000
2023-04-18T07:02:36.695Z,13785.9229
2023-04-18T07:03:38.039Z,13801.7695
2023-04-18T07:04:39.495Z,13800.7695
2023-04-18T07:05:40.977Z,13805.6924
2023-04-18T07:06:42.280Z,13794.0000
2023-04-18T07:07:43.712Z,13785.1543
2023-04-18T07:08:45.090Z,13802.5381
2023-04-18T07:09:46.597Z,13803.1543
2023-04-18T07:10:47.997Z,13802.6924
2023-04-18T07:11:49.415Z,13793.0000
2023-04-18T07:12:50.791Z,13782.7695
2023-04-18T07:13:52.282Z,13789.4619
2023-04-18T07:14:54.354Z,13794.0771
2023-04-18T07:15:55.403Z,13796.2305
2023-04-18T07:16:56.542Z,13789.0000
2023-04-18T07:17:58.870Z,13778.6924
2023-04-18T07:18:59.375Z,13777.7695
2023-04-18T07:20:00.850Z,13785.0000
2023-04-18T07:21:02.299Z,13801.8457
2023-04-18T07:22:03.667Z,13816.3076
2023-04-18T07:23:05.000Z,13790.1543
2023-04-18T07:24:06.511Z,13777.3076
2023-04-18T07:25:07.976Z,13790.7695
2023-04-18T07:26:09.368Z,13791.6152
2023-04-18T07:27:10.849Z,13791.9229
2023-04-18T07:28:12.193Z,13785.8457
2023-04-18T07:29:13.617Z,13773.9229
2023-04-18T07:30:15.064Z,13769.2305
2023-04-18T07:31:16.731Z,13777.4619
2023-04-18T07:32:17.876Z,13786.3076
2023-04-18T07:33:19.323Z,13788.0000
2023-04-18T07:34:20.694Z,13779.1543
2023-04-18T07:35:22.234Z,13771.9229
2023-04-18T07:36:23.644Z,13773.3848
2023-04-18T07:37:25.041Z,13785.0000
2023-04-18T07:38:26.408Z,13797.7695
2023-04-18T07:39:27.846Z,13778.5381
2023-04-18T07:40:29.260Z,13766.3848
2023-04-18T07:41:30.727Z,13774.5381
2023-04-18T07:42:32.074Z,13779.3848
2023-04-18T07:43:33.580Z,13783.3076
2023-04-18T07:44:34.921Z,13780.6924
2023-04-18T07:45:36.409Z,13770.8457
2023-04-18T07:46:37.843Z,13768.8457
2023-04-18T07:47:39.269Z,13776.4619
2023-04-18T07:48:40.682Z,13791.0000
2023-04-18T07:49:42.073Z,13787.1543
2023-04-18T07:50:43.568Z,13782.3076
2023-04-18T07:51:44.918Z,13764.8457
2023-04-18T07:52:46.290Z,13773.5381
2023-04-18T07:53:47.707Z,13776.2305
2023-04-18T07:54:49.108Z,13777.1543
2023-04-18T07:55:50.625Z,13769.9229
2023-04-18T07:56:52.046Z,13763.7695
2023-04-18T07:57:53.456Z,13772.8457
2023-04-18T07:58:54.873Z,13782.5381
2023-04-18T07:59:56.227Z,13794.0000
2023-04-18T08:00:57.772Z,13775.9229
2023-04-18T08:01:59.285Z,13765.0771
2023-04-18T08:03:00.741Z,13775.0771
2023-04-18T08:04:02.346Z,13778.2305
2023-04-18T08:05:03.558Z,13774.1543
2023-04-18T08:06:04.912Z,13781.6924
2023-04-18T08:07:06.251Z,13767.0771
2023-04-18T08:08:07.622Z,13758.3848
2023-04-18T08:09:09.070Z,13768.2305
2023-04-18T08:10:10.476Z,13766.2305
2023-04-18T08:11:11.996Z,13775.0771
2023-04-18T08:12:13.353Z,13769.1543
2023-04-18T08:13:14.780Z,13757.0000
2023-04-18T08:14:16.132Z,13762.5381
2023-04-18T08:15:17.575Z,13768.3076
2023-04-18T08:16:19.033Z,13789.0771
2023-04-18T08:17:20.531Z,13782.7695
2023-04-18T08:18:21.839Z,13767.0771
2023-04-18T08:19:23.285Z,13762.8457
2023-04-18T08:20:24.672Z,13777.0771
2023-04-18T08:21:26.174Z,13788.2305
2023-04-18T08:22:27.551Z,13798.1543
2023-04-18T08:23:28.991Z,13784.3076
2023-04-18T08:24:30.358Z,13769.6924
2023-04-18T08:25:31.892Z,13772.0000
2023-04-18T08:26:33.338Z,13786.5381
2023-04-18T08:27:34.749Z,13802.2305
2023-04-18T08:28:36.065Z,13797.7695
2023-04-18T08:29:37.549Z,13777.7695
2023-04-18T08:30:38.908Z,13773.1543
2023-04-18T08:31:40.429Z,13792.0771
2023-04-18T08:32:41.843Z,13798.3848
2023-04-18T08:33:43.194Z,13809.1543
2023-04-18T08:34:44.579Z,13792.2305
2023-04-18T08:35:46.050Z,13782.8457
2023-04-18T08:36:47.494Z,13770.6924
2023-04-18T08:37:49.010Z,13793.8457
2023-04-18T08:38:50.192Z,13803.1543
2023-04-18T08:39:51.764Z,13812.6924
2023-04-18T08:40:53.130Z,13790.7695
2023-04-18T08:41:54.632Z,13780.8457
2023-04-18T08:42:56.000Z,13761.0000
2023-04-18T08:43:57.393Z,13794.1543
2023-04-18T08:44:58.743Z,13813.0000
2023-04-18T08:46:00.305Z,13812.1543
2023-04-18T08:47:01.837Z,13792.0000
2023-04-18T08:48:03.204Z,13785.0771
2023-04-18T08:49:04.540Z,13769.6924
2023-04-18T08:50:06.061Z,13800.7695
2023-04-18T08:51:07.334Z,13817.8457
2023-04-18T08:52:08.770Z,13810.9229
2023-04-18T08:53:10.284Z,13797.3076
2023-04-18T08:54:11.653Z,13788.5381
2023-04-18T08:55:13.041Z,13787.6924
2023-04-18T08:56:14.427Z,13803.6152
2023-04-18T08:57:15.904Z,13819.6924
2023-04-18T08:58:17.295Z,13809.6152
2023-04-18T08:59:18.691Z,13804.2305
2023-04-18T09:00:20.132Z,13784.7695
2023-04-18T09:01:21.608Z,13796.3848
2023-04-18T09:02:23.138Z,13809.5381
2023-04-18T09:03:24.484Z,13820.8457
2023-04-18T09:04:25.870Z,13806.7695
2023-04-18T09:05:27.374Z,13788.1543
2023-04-18T09:06:28.684Z,13768.3848
2023-04-18T09:07:30.122Z,13782.3848
2023-04-18T09:08:31.533Z,13812.6152
2023-04-18T09:09:32.956Z,13824.0000
2023-04-18T09:10:34.393Z,13791.2305
2023-04-18T09:11:35.802Z,13795.4619
2023-04-18T09:12:37.285Z,13764.5381
2023-04-18T09:13:38.776Z,13791.9229
2023-04-18T09:14:40.073Z,13814.7695
2023-04-18T09:15:42.325Z,13824.7695
2023-04-18T09:16:42.918Z,13795.8457
2023-04-18T09:17:44.337Z,13779.6924
2023-04-18T09:18:45.772Z,13764.6152
2023-04-18T09:19:47.453Z,13799.9229
2023-04-18T09:20:48.543Z,13812.6924
2023-04-18T09:21:50.038Z,13825.9229
2023-04-18T09:22:51.411Z,13797.5381
2023-04-18T09:23:52.944Z,13795.0771
2023-04-18T09:24:54.322Z,13777.0771
2023-04-18T09:25:55.723Z,13801.3848
2023-04-18T09:26:57.125Z,13818.3076
2023-04-18T09:27:58.551Z,13823.9229
2023-04-18T09:28:59.998Z,13802.8457
2023-04-18T09:30:01.471Z,13796.6924
2023-04-18T09:31:02.891Z,13793.3076
2023-04-18T09:32:04.227Z,13797.8457
2023-04-18T09:33:05.790Z,13814.1543
2023-04-18T09:34:07.149Z,13826.8457
2023-04-18T09:35:08.557Z,13812.8457
2023-04-18T09:36:10.057Z,13795.0000
2023-04-18T09:37:11.559Z,13775.3076
2023-04-18T09:38:12.900Z,13778.0000
2023-04-18T09:39:14.455Z,13808.3848
2023-04-18T09:40:15.878Z,13826.3848
2023-04-18T09:41:19.898Z,13810.9229
2023-04-18T09:42:18.578Z,13793.6152
2023-04-18T09:43:20.042Z,13784.6152
2023-04-18T09:44:21.477Z,13802.0000
2023-04-18T09:45:22.873Z,13817.0000
2023-04-18T09:46:24.265Z,13829.2305
2023-04-18T09:47:25.797Z,13805.4619
2023-04-18T09:48:27.214Z,13787.7695
2023-04-18T09:49:28.607Z,13773.5381
2023-04-18T09:50:30.031Z,13806.2305
2023-04-18T09:51:31.344Z,13819.9229
2023-04-18T09:52:32.752Z,13823.4619
2023-04-18T09:53:34.226Z,13802.0000
2023-04-18T09:54:35.713Z,13796.1543
2023-04-18T09:55:37.135Z,13775.4619
2023-04-18T09:56:38.574Z,13803.3848
2023-04-18T09:57:40.021Z,13815.6152
2023-04-18T09:58:41.318Z,13826.0771
2023-04-18T09:59:42.793Z,13802.3848
2023-04-18T10:00:46.363Z,13793.6924
2023-04-18T10:01:45.626Z,13798.4619
2023-04-18T10:02:47.120Z,13806.3848
2023-04-18T10:03:48.665Z,13824.0771
2023-04-18T10:04:49.951Z,13823.7695
2023-04-18T10:05:51.424Z,13798.2305
2023-04-18T10:06:53.446Z,13789.6924
2023-04-18T10:07:54.085Z,13776.5381
2023-04-18T10:08:55.587Z,13801.7695
2023-04-18T10:09:57.004Z,13824.6152
2023-04-18T10:10:58.417Z,13814.0000
2023-04-18T10:11:59.803Z,13795.2305
2023-04-18T10:13:01.226Z,13775.3076
2023-04-18T10:14:02.596Z,13782.1543
2023-04-18T10:15:04.136Z,13806.4619
2023-04-18T10:16:05.989Z,13822.6152
2023-04-18T10:17:06.963Z,13808.8457
2023-04-18T10:18:08.339Z,13788.3848
2023-04-18T10:19:09.892Z,13774.5381
2023-04-18T10:20:11.209Z,13794.6924
2023-04-18T10:21:12.597Z,13809.0000
2023-04-18T10:22:14.043Z,13826.0771
2023-04-18T10:23:15.425Z,13810.3848
2023-04-18T10:24:16.803Z,13786.2305
2023-04-18T10:25:18.337Z,13778.9229
2023-04-18T10:26:19.734Z,13802.6924
2023-04-18T10:27:21.099Z,13801.4619
2023-04-18T10:28:23.408Z,13820.3848
2023-04-18T10:29:23.964Z,13813.8457
2023-04-18T10:30:25.465Z,13781.2305
2023-04-18T10:31:27.160Z,13766.7695
2023-04-18T10:32:28.317Z,13792.5381
2023-04-18T10:33:31.921Z,13810.3076
2023-04-18T10:34:31.057Z,13820.9229
2023-04-18T10:35:32.565Z,13807.9229
2023-04-18T10:36:33.950Z,13786.8457
2023-04-18T10:37:35.336Z,13778.0771
2023-04-18T10:38:36.714Z,13796.7695
2023-04-18T10:39:38.177Z,13809.1543
2023-04-18T10:40:39.559Z,13818.1543
2023-04-18T10:41:41.042Z,13796.6924
2023-04-18T10:42:42.394Z,13772.7695
2023-04-18T10:43:45.471Z,13778.0000
2023-04-18T10:55:55.265Z,13796.0000
2023-04-18T10:56:57.614Z,13744.6426
2023-04-18T10:57:58.877Z,13730.9229
2023-04-18T10:59:00.411Z,13733.2305
2023-04-18T11:00:01.965Z,13712.0000
2023-04-18T11:01:03.334Z,13712.9229
2023-04-18T11:02:04.771Z,13725.6924
2023-04-18T11:03:06.245Z,13754.0771
2023-04-18T11:04:07.749Z,13763.3848
2023-04-18T11:05:08.970Z,13770.1543
2023-04-18T11:06:10.380Z,13751.0000
2023-04-18T11:07:11.716Z,13743.1543
2023-04-18T11:08:13.195Z,13737.3848
2023-04-18T11:09:14.788Z,13761.6924
2023-04-18T11:10:16.122Z,13777.4619
2023-04-18T11:11:17.567Z,13779.8457
2023-04-18T11:12:18.863Z,13758.2305
2023-04-18T11:13:20.325Z,13742.6152
2023-04-18T11:14:21.758Z,13763.8457
2023-04-18T11:15:23.161Z,13774.3848
2023-04-18T11:16:24.610Z,13796.1543
2023-04-18T11:17:26.164Z,13796.1543
2023-04-18T11:18:27.493Z,13770.3848
2023-04-18T11:19:28.858Z,13750.3076
2023-04-18T11:20:30.309Z,13772.7695
2023-04-18T11:21:31.698Z,13776.0000
2023-04-18T11:22:33.202Z,13793.8457
2023-04-18T11:23:34.604Z,13797.0771
2023-04-18T11:24:35.981Z,13769.6924
2023-04-18T11:25:37.340Z,13754.3848
2023-04-18T11:26:38.817Z,13769.7695
2023-04-18T11:27:40.241Z,13774.6152
2023-04-18T11:28:41.684Z,13791.4619
2023-04-18T11:29:43.113Z,13798.1543
2023-04-18T11:30:44.496Z,13777.5381
2023-04-18T11:31:46.001Z,13767.3076
2023-04-18T11:32:47.482Z,13777.8457